createdAt,value
2023-03-30T00:01:17.365Z,6.56
2023-03-30T00:03:45.939Z,6.59
2023-03-30T00:06:21.074Z,6.51
2023-03-30T00:08:49.117Z,6.34
2023-03-30T00:11:17.344Z,6.40
2023-03-30T00:13:44.644Z,6.45
2023-03-30T00:16:13.808Z,6.55
2023-03-30T00:18:45.605Z,6.24
2023-03-30T00:21:12.224Z,6.34
2023-03-30T00:23:39.528Z,6.24
2023-03-30T00:26:07.570Z,6.17
2023-03-30T00:28:34.782Z,6.27
2023-03-30T00:31:02.227Z,6.32
2023-03-30T00:33:44.029Z,6.23
2023-03-30T00:36:12.438Z,6.47
2023-03-30T00:38:39.215Z,6.26
2023-03-30T00:41:07.125Z,6.33
2023-03-30T00:43:34.095Z,6.22
2023-03-30T00:46:01.206Z,6.32
2023-03-30T00:48:32.021Z,6.22
2023-03-30T00:51:04.914Z,6.40
2023-03-30T00:53:35.244Z,6.20
2023-03-30T00:56:04.722Z,6.02
2023-03-30T00:58:32.094Z,6.22
2023-03-30T01:01:02.745Z,6.16
2023-03-30T01:03:32.693Z,6.15
2023-03-30T01:06:02.905Z,6.05
2023-03-30T01:08:32.573Z,5.92
2023-03-30T01:11:01.585Z,6.11
2023-03-30T01:13:30.628Z,6.08
2023-03-30T01:16:22.450Z,6.05
2023-03-30T01:19:07.190Z,6.01
2023-03-30T01:21:55.566Z,5.99
2023-03-30T01:25:02.820Z,5.88
2023-03-30T01:27:48.400Z,5.99
2023-03-30T01:30:44.420Z,5.98
2023-03-30T01:33:42.106Z,5.92
2023-03-30T01:36:40.210Z,5.89
2023-03-30T01:39:57.515Z,5.89
2023-03-30T01:42:51.095Z,5.20
2023-03-30T01:45:22.782Z,5.70
2023-03-30T01:48:01.583Z,5.82
2023-03-30T01:50:35.165Z,5.71
2023-03-30T01:53:11.877Z,5.65
2023-03-30T01:55:45.396Z,5.84
2023-03-30T01:58:21.604Z,5.81
2023-03-30T02:00:51.005Z,5.60
2023-03-30T02:03:23.624Z,5.83
2023-03-30T02:05:54.142Z,5.74
2023-03-30T02:08:26.114Z,5.82
2023-03-30T02:10:54.960Z,5.63
2023-03-30T02:13:23.583Z,5.67
2023-03-30T02:15:57.019Z,5.86
2023-03-30T02:18:24.040Z,5.69
2023-03-30T02:20:50.838Z,5.18
2023-03-30T02:23:21.346Z,5.65
2023-03-30T02:25:48.354Z,5.69
2023-03-30T02:28:18.452Z,5.70
2023-03-30T02:30:47.143Z,5.77
2023-03-30T02:33:24.411Z,5.60
2023-03-30T02:36:01.020Z,5.69
2023-03-30T02:38:37.409Z,5.52
2023-03-30T02:41:40.293Z,5.76
2023-03-30T02:44:30.638Z,5.68
2023-03-30T02:47:06.946Z,5.50
2023-03-30T02:49:41.719Z,5.54
2023-03-30T02:52:14.768Z,5.74
2023-03-30T02:54:57.303Z,5.57
2023-03-30T02:58:18.657Z,5.64
2023-03-30T03:00:59.353Z,5.57
2023-03-30T03:03:38.517Z,5.54
2023-03-30T03:06:09.415Z,5.41
2023-03-30T03:08:44.804Z,5.20
2023-03-30T03:11:14.405Z,5.40
2023-03-30T03:13:41.145Z,5.37
2023-03-30T03:16:13.341Z,5.34
2023-03-30T03:18:52.565Z,5.48
2023-03-30T03:21:19.279Z,5.36
2023-03-30T03:23:48.397Z,5.67
2023-03-30T03:26:18.608Z,5.53
2023-03-30T03:28:45.308Z,5.46
2023-03-30T03:31:13.412Z,5.60
2023-03-30T03:33:40.674Z,5.33
2023-03-30T03:36:14.264Z,5.49
2023-03-30T03:38:51.130Z,5.47
2023-03-30T03:41:17.978Z,5.24
2023-03-30T03:43:45.000Z,5.24
2023-03-30T03:46:12.841Z,5.21
2023-03-30T03:48:40.537Z,5.25
2023-03-30T03:51:07.768Z,5.26
2023-03-30T03:53:35.696Z,5.07
2023-03-30T03:56:06.180Z,5.20
2023-03-30T03:58:34.026Z,5.19
2023-03-30T04:01:02.563Z,5.24
2023-03-30T04:03:29.965Z,5.25
2023-03-30T04:06:02.621Z,5.23
2023-03-30T04:08:29.832Z,4.92
2023-03-30T04:11:10.016Z,5.00
2023-03-30T04:13:48.274Z,5.00
2023-03-30T04:16:49.025Z,5.07
2023-03-30T04:19:55.073Z,5.08
2023-03-30T04:22:37.341Z,4.87
2023-03-30T04:25:29.014Z,5.02
2023-03-30T04:28:33.027Z,4.60
2023-03-30T04:31:11.035Z,5.01
2023-03-30T04:33:51.931Z,4.83
2023-03-30T04:36:38.323Z,5.36
2023-03-30T04:39:33.975Z,5.24
2023-03-30T04:42:34.011Z,4.97
2023-03-30T04:45:20.731Z,5.02
2023-03-30T04:48:03.036Z,3.96
2023-03-30T04:50:49.511Z,4.90
2023-03-30T04:53:50.818Z,4.70
2023-03-30T04:56:17.509Z,4.69
2023-03-30T04:59:04.562Z,4.91
2023-03-30T05:01:58.120Z,4.82
2023-03-30T05:04:45.323Z,4.95
2023-03-30T05:07:44.429Z,4.95
2023-03-30T05:10:28.104Z,5.16
2023-03-30T05:12:55.961Z,4.95
2023-03-30T05:15:41.042Z,5.30
2023-03-30T05:18:25.919Z,5.12
2023-03-30T05:21:10.788Z,5.26
2023-03-30T05:24:04.756Z,5.13
2023-03-30T05:27:05.043Z,5.07
2023-03-30T05:29:49.374Z,5.09
2023-03-30T05:32:34.636Z,5.03
2023-03-30T05:35:19.799Z,5.04
2023-03-30T05:38:12.776Z,5.26
2023-03-30T05:40:58.298Z,5.23
2023-03-30T05:43:49.476Z,5.18
2023-03-30T05:46:33.581Z,4.88
2023-03-30T05:49:33.314Z,5.12
2023-03-30T05:52:07.632Z,4.75
2023-03-30T05:54:49.229Z,5.20
2023-03-30T05:57:29.591Z,5.24
2023-03-30T06:00:22.678Z,4.89
2023-03-30T06:03:00.102Z,5.05
2023-03-30T06:05:33.824Z,5.04
2023-03-30T06:08:00.973Z,5.16
2023-03-30T06:10:27.861Z,4.95
2023-03-30T06:12:56.083Z,5.14
2023-03-30T06:15:38.303Z,5.42
2023-03-30T06:18:08.642Z,5.67
2023-03-30T06:20:38.793Z,5.85
2023-03-30T06:23:06.075Z,5.78
2023-03-30T06:25:32.762Z,5.85
2023-03-30T06:27:59.757Z,5.86
2023-03-30T06:30:27.186Z,5.90
2023-03-30T06:32:57.162Z,6.04
2023-03-30T06:35:25.927Z,5.93
2023-03-30T06:37:53.630Z,5.78
2023-03-30T06:40:20.736Z,5.74
2023-03-30T06:42:49.658Z,5.89
2023-03-30T06:45:42.927Z,5.69
2023-03-30T06:48:09.716Z,5.59
2023-03-30T06:50:40.595Z,5.86
2023-03-30T06:53:14.097Z,5.68
2023-03-30T06:55:44.318Z,5.81
2023-03-30T06:58:17.746Z,5.83
2023-03-30T07:00:44.690Z,6.03
2023-03-30T07:03:38.110Z,5.48
2023-03-30T07:06:25.409Z,6.02
2023-03-30T07:08:52.565Z,5.97
2023-03-30T07:11:22.555Z,6.22
2023-03-30T07:13:50.590Z,6.31
2023-03-30T07:16:17.402Z,6.30
2023-03-30T07:18:44.067Z,6.52
2023-03-30T07:21:10.796Z,6.69
2023-03-30T07:23:40.324Z,6.82
2023-03-30T07:26:07.706Z,6.77
2023-03-30T07:28:40.692Z,6.50
2023-03-30T07:31:10.317Z,6.62
2023-03-30T07:33:39.935Z,6.61
2023-03-30T07:36:08.863Z,6.81
2023-03-30T07:38:37.102Z,6.69
2023-03-30T07:41:08.350Z,6.60
2023-03-30T07:43:36.080Z,6.57
2023-03-30T07:46:03.372Z,6.94
2023-03-30T07:48:35.827Z,6.71
2023-03-30T07:51:07.939Z,6.56
2023-03-30T07:53:38.306Z,7.00
2023-03-30T07:56:13.818Z,6.69
2023-03-30T07:58:45.306Z,6.66
2023-03-30T08:01:13.368Z,7.08
2023-03-30T08:04:01.200Z,7.05
2023-03-30T08:06:30.814Z,6.76
2023-03-30T08:08:58.751Z,6.95
2023-03-30T08:11:25.426Z,6.67
2023-03-30T08:13:52.118Z,7.00
2023-03-30T08:16:18.815Z,6.51
2023-03-30T08:18:47.242Z,6.90
2023-03-30T08:21:13.925Z,7.07
2023-03-30T08:23:40.833Z,7.19
2023-03-30T08:26:07.872Z,7.22
2023-03-30T08:28:35.142Z,7.26
2023-03-30T08:31:10.787Z,7.38
2023-03-30T08:33:37.565Z,7.18
2023-03-30T08:36:04.636Z,6.98
2023-03-30T08:38:31.571Z,6.80
2023-03-30T08:40:58.685Z,7.24
2023-03-30T08:43:43.160Z,7.24
2023-03-30T08:46:18.027Z,7.22
2023-03-30T08:48:47.273Z,7.27
2023-03-30T08:51:20.775Z,7.38
2023-03-30T08:53:57.937Z,7.32
2023-03-30T08:56:29.541Z,7.33
2023-03-30T08:59:25.383Z,7.33
2023-03-30T09:01:57.737Z,7.67
2023-03-30T09:04:47.913Z,7.71
2023-03-30T09:07:21.595Z,7.56
2023-03-30T09:09:51.822Z,7.58
2023-03-30T09:12:18.426Z,7.62
2023-03-30T09:14:51.233Z,7.81
2023-03-30T09:17:39.171Z,7.79
2023-03-30T09:20:18.835Z,7.78
2023-03-30T09:22:45.728Z,7.68
2023-03-30T09:25:18.557Z,7.51
2023-03-30T09:27:55.629Z,7.24
2023-03-30T09:30:29.200Z,7.28
2023-03-30T09:33:03.638Z,7.14
2023-03-30T09:35:40.662Z,7.45
2023-03-30T09:38:13.721Z,7.68
2023-03-30T09:41:01.025Z,7.54
2023-03-30T09:43:34.329Z,7.57
2023-03-30T09:46:07.661Z,7.93
2023-03-30T09:48:46.241Z,8.08
2023-03-30T09:51:17.140Z,8.04
2023-03-30T09:53:46.114Z,8.00
2023-03-30T09:56:27.876Z,8.24
2023-03-30T09:58:55.832Z,7.93
2023-03-30T10:01:34.428Z,8.16
2023-03-30T10:04:12.700Z,8.11
2023-03-30T10:06:47.215Z,8.21
2023-03-30T10:09:14.654Z,8.11
2023-03-30T10:11:41.214Z,8.03
2023-03-30T10:14:31.542Z,8.13
2023-03-30T10:16:59.502Z,8.32
2023-03-30T10:19:26.795Z,8.69
2023-03-30T10:21:57.541Z,8.76
2023-03-30T10:24:24.276Z,8.83
2023-03-30T10:26:55.793Z,8.83
2023-03-30T10:29:25.705Z,8.76
2023-03-30T10:31:58.941Z,8.76
2023-03-30T10:34:40.876Z,8.85
2023-03-30T10:37:13.737Z,9.01
2023-03-30T10:39:43.546Z,8.64
2023-03-30T10:42:17.157Z,9.17
2023-03-30T10:44:50.391Z,9.24
2023-03-30T10:47:23.004Z,9.36
2023-03-30T10:50:28.442Z,9.60
2023-03-30T10:52:59.331Z,9.79
2023-03-30T10:55:34.071Z,9.94
2023-03-30T10:58:16.024Z,9.97
2023-03-30T11:01:00.821Z,10.09
2023-03-30T11:03:32.426Z,10.15
2023-03-30T11:06:06.868Z,9.84
2023-03-30T11:08:38.096Z,10.04
2023-03-30T11:11:06.121Z,10.10
2023-03-30T11:13:40.101Z,10.29
2023-03-30T11:16:21.585Z,10.34
2023-03-30T11:18:57.056Z,10.39
2023-03-30T11:21:45.184Z,10.49
2023-03-30T11:24:14.616Z,10.63
2023-03-30T11:26:49.540Z,10.62
2023-03-30T11:29:47.231Z,10.94
2023-03-30T11:32:37.742Z,10.86
2023-03-30T11:35:36.164Z,10.78
2023-03-30T11:38:12.674Z,10.89
2023-03-30T11:41:04.289Z,10.75
2023-03-30T11:43:31.598Z,10.51
2023-03-30T11:46:04.493Z,10.80
2023-03-30T11:48:49.746Z,10.84
2023-03-30T11:51:38.439Z,11.34
2023-03-30T11:54:20.517Z,11.18
2023-03-30T11:57:00.745Z,11.34
2023-03-30T11:59:54.382Z,11.15
2023-03-30T12:02:56.579Z,11.25
2023-03-30T12:05:45.910Z,11.15
2023-03-30T12:08:49.265Z,11.28
2023-03-30T12:11:25.446Z,10.98
2023-03-30T12:13:52.530Z,11.04
2023-03-30T12:16:38.004Z,10.96
2023-03-30T12:19:17.262Z,11.34
2023-03-30T12:22:06.336Z,11.31
2023-03-30T12:24:47.814Z,11.02
2023-03-30T12:27:17.482Z,11.06
2023-03-30T12:30:02.385Z,11.26
2023-03-30T12:32:30.872Z,11.27
2023-03-30T12:34:58.450Z,11.42
2023-03-30T12:37:37.523Z,11.44
2023-03-30T12:40:20.774Z,11.72
2023-03-30T12:43:09.322Z,11.48
2023-03-30T12:45:48.400Z,11.64
2023-03-30T12:48:26.315Z,11.82
2023-03-30T12:51:11.702Z,11.90
2023-03-30T12:53:54.975Z,11.84
2023-03-30T12:56:50.396Z,11.67
2023-03-30T12:59:55.857Z,11.70
2023-03-30T13:02:52.418Z,12.07
2023-03-30T13:05:24.059Z,12.10
2023-03-30T13:07:53.620Z,11.31
2023-03-30T13:10:36.778Z,11.75
2023-03-30T13:13:05.038Z,11.64
2023-03-30T13:15:50.264Z,11.82
2023-03-30T13:18:16.871Z,11.83
2023-03-30T13:20:46.235Z,12.17
2023-03-30T13:23:12.873Z,12.02
2023-03-30T13:25:49.632Z,12.55
2023-03-30T13:28:49.121Z,12.57
2023-03-30T13:31:24.865Z,12.41
2023-03-30T13:34:19.100Z,12.39
2023-03-30T13:37:18.343Z,12.69
2023-03-30T13:39:52.710Z,12.72
2023-03-30T13:42:51.829Z,12.73
2023-03-30T13:45:33.451Z,12.43
2023-03-30T13:48:27.821Z,12.33
2023-03-30T13:51:00.652Z,12.10
2023-03-30T13:53:31.366Z,11.82
2023-03-30T13:55:58.229Z,12.02
2023-03-30T13:58:30.756Z,11.89
2023-03-30T14:01:01.900Z,11.76
2023-03-30T14:03:28.536Z,12.22
2023-03-30T14:06:03.941Z,11.94
2023-03-30T14:08:37.560Z,12.22
2023-03-30T14:11:14.135Z,12.70
2023-03-30T14:13:41.320Z,12.73
2023-03-30T14:16:12.057Z,12.73
2023-03-30T14:18:38.952Z,12.63
2023-03-30T14:21:19.235Z,12.57
2023-03-30T14:23:52.689Z,12.52
2023-03-30T14:26:27.429Z,12.53
2023-03-30T14:28:59.646Z,12.19
2023-03-30T14:31:29.342Z,12.46
2023-03-30T14:33:56.076Z,13.23
2023-03-30T14:36:23.112Z,13.74
2023-03-30T14:38:52.266Z,13.15
2023-03-30T14:41:23.889Z,13.30
2023-03-30T14:44:12.503Z,13.24
2023-03-30T14:46:47.021Z,13.33
2023-03-30T14:49:34.522Z,14.60
2023-03-30T14:52:08.187Z,15.07
2023-03-30T14:54:37.211Z,14.40
2023-03-30T14:57:06.385Z,14.81
2023-03-30T14:59:37.755Z,15.06
2023-03-30T15:02:21.200Z,14.39
2023-03-30T15:04:49.417Z,15.31
2023-03-30T15:07:17.739Z,14.80
2023-03-30T15:09:48.872Z,14.81
2023-03-30T15:12:24.658Z,14.18
2023-03-30T15:14:55.152Z,13.79
2023-03-30T15:17:27.973Z,14.75
2023-03-30T15:19:58.518Z,14.41
2023-03-30T15:22:48.447Z,15.65
2023-03-30T15:25:22.021Z,15.72
2023-03-30T15:28:11.793Z,16.13
2023-03-30T15:30:41.268Z,16.65
2023-03-30T15:33:39.152Z,16.18
2023-03-30T15:36:17.453Z,15.38
2023-03-30T15:38:51.780Z,15.74
2023-03-30T15:41:22.965Z,15.68
2023-03-30T15:44:10.843Z,14.47
2023-03-30T15:46:38.084Z,13.81
2023-03-30T15:49:05.907Z,13.49
2023-03-30T15:51:39.438Z,13.26
2023-03-30T15:54:15.135Z,12.58
2023-03-30T15:56:48.028Z,12.97
2023-03-30T15:59:18.140Z,12.35
2023-03-30T16:01:53.845Z,12.59
2023-03-30T16:04:23.874Z,12.29
2023-03-30T16:06:52.542Z,11.86
2023-03-30T16:09:19.296Z,11.12
2023-03-30T16:11:47.869Z,10.28
2023-03-30T16:14:20.505Z,10.98
2023-03-30T16:16:48.494Z,11.04
2023-03-30T16:19:18.628Z,10.20
2023-03-30T16:21:45.751Z,10.79
2023-03-30T16:24:13.000Z,10.36
2023-03-30T16:26:43.057Z,10.35
2023-03-30T16:29:33.497Z,9.72
2023-03-30T16:34:58.606Z,9.50
2023-03-30T16:37:25.996Z,9.59
2023-03-30T16:39:52.915Z,9.99
2023-03-30T16:42:20.282Z,9.40
2023-03-30T16:44:46.992Z,9.21
2023-03-30T16:47:14.989Z,8.37
2023-03-30T16:49:41.661Z,9.15
2023-03-30T16:52:08.885Z,8.18
2023-03-30T16:54:35.648Z,9.21
2023-03-30T16:57:03.282Z,8.33
2023-03-30T16:59:31.476Z,9.25
2023-03-30T17:01:59.377Z,8.81
2023-03-30T17:04:26.747Z,9.15
2023-03-30T17:06:56.468Z,8.87
2023-03-30T17:09:23.501Z,9.03
2023-03-30T17:11:50.470Z,8.64
2023-03-30T17:14:17.810Z,8.87
2023-03-30T17:16:44.576Z,8.08
2023-03-30T17:19:13.285Z,8.38
2023-03-30T17:21:43.581Z,8.44
2023-03-30T17:24:11.266Z,8.06
2023-03-30T17:26:38.872Z,8.65
2023-03-30T17:29:05.810Z,7.52
2023-03-30T17:31:32.580Z,8.36
2023-03-30T17:33:59.341Z,8.52
2023-03-30T17:36:26.850Z,8.34
2023-03-30T17:38:53.691Z,7.26
2023-03-30T17:41:21.376Z,7.41
2023-03-30T17:43:48.930Z,7.31
2023-03-30T17:46:18.284Z,6.50
2023-03-30T17:48:45.694Z,7.09
2023-03-30T17:51:12.622Z,6.62
2023-03-30T17:53:39.448Z,6.91
2023-03-30T17:56:06.908Z,7.66
2023-03-30T17:58:36.088Z,6.63
2023-03-30T18:01:06.395Z,7.27
2023-03-30T18:03:34.178Z,6.55
2023-03-30T18:06:01.985Z,7.51
2023-03-30T18:08:29.468Z,7.42
2023-03-30T18:10:58.668Z,7.82
2023-03-30T18:13:27.005Z,7.91
2023-03-30T18:15:55.780Z,7.82
2023-03-30T18:18:26.025Z,7.79
2023-03-30T18:20:57.879Z,7.98
2023-03-30T18:23:24.703Z,7.64
2023-03-30T18:25:52.016Z,8.00
2023-03-30T18:28:23.784Z,7.64
2023-03-30T18:30:53.237Z,7.37
2023-03-30T18:33:20.018Z,7.68
2023-03-30T18:35:49.178Z,8.09
2023-03-30T18:38:18.670Z,7.85
2023-03-30T18:40:49.441Z,7.78
2023-03-30T18:43:16.588Z,7.28
2023-03-30T18:45:46.959Z,7.48
2023-03-30T18:48:16.468Z,6.93
2023-03-30T18:50:46.054Z,7.66
2023-03-30T18:53:15.505Z,7.80
2023-03-30T18:55:47.366Z,7.72
2023-03-30T18:58:22.978Z,7.78
2023-03-30T19:00:51.794Z,7.21
2023-03-30T19:03:19.924Z,7.46
2023-03-30T19:05:47.084Z,7.06
2023-03-30T19:08:16.041Z,7.04
2023-03-30T19:10:44.592Z,6.73
2023-03-30T19:13:14.481Z,7.05
2023-03-30T19:15:41.873Z,7.01
2023-03-30T19:18:09.090Z,6.48
2023-03-30T19:20:39.672Z,7.03
2023-03-30T19:23:07.677Z,6.37
2023-03-30T19:25:34.671Z,7.06
2023-03-30T19:28:04.153Z,6.81
2023-03-30T19:30:36.724Z,6.63
2023-03-30T19:33:08.706Z,7.03
2023-03-30T19:35:35.803Z,6.92
2023-03-30T19:38:02.977Z,6.56
2023-03-30T19:40:29.769Z,6.23
2023-03-30T19:43:00.992Z,6.61
2023-03-30T19:45:27.684Z,6.28
2023-03-30T19:47:54.513Z,7.20
2023-03-30T19:50:23.256Z,6.03
2023-03-30T19:52:51.054Z,6.63
2023-03-30T19:55:21.643Z,7.03
2023-03-30T19:57:48.445Z,6.65
2023-03-30T20:00:17.409Z,6.61
2023-03-30T20:02:55.163Z,6.60
2023-03-30T20:05:23.818Z,6.76
2023-03-30T20:07:51.254Z,6.77
2023-03-30T20:10:21.412Z,6.37
2023-03-30T20:12:49.674Z,6.87
2023-03-30T20:15:16.576Z,6.66
2023-03-30T20:17:43.721Z,6.88
2023-03-30T20:20:12.814Z,6.86
2023-03-30T20:22:44.343Z,6.61
2023-03-30T20:25:14.236Z,6.75
2023-03-30T20:27:41.525Z,6.80
2023-03-30T20:30:09.719Z,6.81
2023-03-30T20:32:36.474Z,6.24
2023-03-30T20:35:04.033Z,6.86
2023-03-30T20:37:30.902Z,6.50
2023-03-30T20:40:03.617Z,6.59
2023-03-30T20:42:31.754Z,6.77
2023-03-30T20:44:59.612Z,6.56
2023-03-30T20:47:30.126Z,6.93
2023-03-30T20:49:58.373Z,6.76
2023-03-30T20:52:25.586Z,6.61
2023-03-30T20:54:52.865Z,6.47
2023-03-30T20:57:21.172Z,6.59
2023-03-30T20:59:48.424Z,6.53
2023-03-30T21:02:16.770Z,6.42
2023-03-30T21:04:44.677Z,6.33
2023-03-30T21:07:12.301Z,6.06
2023-03-30T21:09:39.654Z,6.20
2023-03-30T21:12:07.639Z,6.12
2023-03-30T21:14:34.283Z,6.23
2023-03-30T21:17:01.273Z,5.95
2023-03-30T21:19:27.933Z,6.35
2023-03-30T21:21:54.583Z,6.15
2023-03-30T21:24:21.440Z,6.16
2023-03-30T21:26:48.674Z,6.09
2023-03-30T21:29:15.471Z,6.27
2023-03-30T21:31:42.143Z,6.16
2023-03-30T21:34:10.717Z,6.07
2023-03-30T21:36:37.546Z,6.18
2023-03-30T21:39:04.307Z,5.85
2023-03-30T21:41:31.084Z,6.15
2023-03-30T21:43:57.973Z,6.31
2023-03-30T21:46:25.973Z,6.30
2023-03-30T21:48:53.944Z,6.24
2023-03-30T21:51:26.423Z,6.34
2023-03-30T21:53:54.554Z,6.35
2023-03-30T21:56:23.462Z,6.27
2023-03-30T21:58:50.625Z,6.41
2023-03-30T22:01:18.919Z,6.37
2023-03-30T22:03:46.175Z,6.12
2023-03-30T22:06:14.601Z,6.20
2023-03-30T22:08:41.969Z,6.16
2023-03-30T22:11:13.217Z,5.86
2023-03-30T22:13:39.992Z,5.59
2023-03-30T22:16:35.011Z,5.87
2023-03-30T22:19:02.633Z,5.70
2023-03-30T22:21:33.843Z,5.90
2023-03-30T22:24:01.879Z,6.41
2023-03-30T22:26:28.607Z,6.48
2023-03-30T22:28:56.240Z,6.13
2023-03-30T22:31:22.890Z,6.40
2023-03-30T22:33:49.523Z,6.47
2023-03-30T22:36:24.134Z,6.88
2023-03-30T22:38:51.751Z,6.98
2023-03-30T22:41:23.651Z,6.82
2023-03-30T22:43:52.460Z,6.92
2023-03-30T22:46:19.282Z,7.25
2023-03-30T22:48:45.952Z,7.01
2023-03-30T22:51:14.353Z,7.08
2023-03-30T22:53:41.230Z,7.22
2023-03-30T22:56:08.295Z,7.02
2023-03-30T22:58:36.071Z,6.96
2023-03-30T23:01:10.590Z,7.05
2023-03-30T23:03:37.640Z,6.89
2023-03-30T23:06:04.640Z,6.92
2023-03-30T23:08:31.511Z,6.94
2023-03-30T23:11:04.947Z,7.24
2023-03-30T23:13:37.170Z,6.38
2023-03-30T23:16:06.368Z,7.36
2023-03-30T23:18:34.194Z,7.37
2023-03-30T23:21:06.080Z,6.87
2023-03-30T23:23:34.711Z,7.31
2023-03-30T23:26:02.849Z,7.23
2023-03-30T23:28:30.613Z,7.24
2023-03-30T23:30:57.905Z,7.28
2023-03-30T23:33:25.064Z,7.16
2023-03-30T23:35:53.220Z,7.04
2023-03-30T23:38:19.906Z,6.94
2023-03-30T23:40:46.566Z,6.86
2023-03-30T23:43:13.268Z,6.66
2023-03-30T23:45:42.918Z,6.55
2023-03-30T23:48:09.518Z,6.29
2023-03-30T23:50:36.927Z,6.03
2023-03-30T23:53:03.713Z,6.37
2023-03-30T23:55:30.353Z,6.18
2023-03-30T23:57:56.984Z,5.96
